Stoughton, Canada
Current Conditions -  °F | °C
As of 3:00 PM on Sunday 21 Dec 2014 (Local Time) from CYEN Reporting Station
Broken Clouds Broken Clouds  
Wind Chill: 17°   Ceiling: 12000
Heat Index: 27°   Visibility: 15mi
Dew Point: 27°   Wind: 10mph
Humidity: 100%   Direction: 80°E
Pressure: 29.34"   Gusts: NA
Location:  49.68°N, 103.02°W
Report Text: CYEN 212100Z 08009KT 15SM BKN120 M03/M03 A2934 RMK AC6 SLP969
Loading
Personal Weather Stations






























Interactive Weather Map New forecast layout! Learn more

10-Day Weather Forecast

Advertisements
Track Severe Weather on mobile